Huvudsida
METAR-TAF:

METAR-TAF

Flygplatser :

Les Ajoncs

La Roche-sur-Yon, Frankrike

latitud: 46-42N, longitud: 001-23W, höjd: 90 m

Aktuellt väderrapport

Denna rapport gjordes för 34 minuter sedan, klockan 22:00 UTC
Vind 9 kt från ost/nordost
Temperatur 19°C
Fuktighet 52%
Tryck 1028 hPa
Sikt 10 km eller mer
Inga moln under 1 500 m eller inga cumulonimbus

METAR: LFRI 272200Z AUTO 06009KT CAVOK 19/09 Q1028

Tid: 00:34 (22:34 UTC)


TAF: saknas

Aktuella väderrapporter och prognoser från 4000 flygplatser (METAR- och TAF-rapporter).

De tillgängliga stationerna syns som gula och röda prickar på kartan.

För musen över prickarna för att se namnen på stationerna.

Klicka sedan för att få väderrapporter och prognoser.

För att ändra kartan: Klicka på de gröna knapparna med ett svart kors på för att zooma in; den gröna knappen med ett streck på för att zooma ut; eller på de gröna pilarna för angränsande kartor.


METAR-TAF: